Time;durP1;ratioP1;P1;durP2;ratioP2;P2;SDS_P1;SDS_P2;PMS_P1;PMS_P2;Temp;Humidity;BMP_temperature;BMP_pressure;BME280_temperature;BME280_humidity;BME280_pressure;Samples;Min_cycle;Max_cycle;Signal;HPM_P1;HPM_P2
2024/04/07 00:01:31;;;;;;;;;;;;;;;21.38;30.03;98108.97;5020181;28;1902;-76
2024/04/07 00:03:57;;;;;;;;;;;;;;;21.58;29.76;98110.47;5037646;28;971;-76
2024/04/07 00:06:23;;;;;;;;;;;;;;;21.37;29.95;98107.38;5050187;28;971;-77
2024/04/07 00:08:48;;;;;;;;;;;;;;;21.43;29.88;98105.63;5033366;28;998;-76
2024/04/07 00:11:16;;;;;;;;;;;;;;;21.24;30.29;98102.41;5033618;28;972;-76
2024/04/07 00:13:41;;;;;;;;;;;;;;;21.26;30.13;98102.75;5016913;28;1275;-76
2024/04/07 00:16:07;;;;;;;;;;;;;;;21.37;30.29;98101.72;5049766;28;1233;-76
2024/04/07 00:18:34;;;;;;;;;;;;;;;21.31;29.98;98093.75;5033403;28;1489;-76
2024/04/07 00:21:01;;;;;;;;;;;;;;;21.42;30.09;98081.38;5020600;28;933;-76
2024/04/07 00:23:26;;;;;;;;;;;;;;;21.43;30.23;98088.63;5055405;28;1918;-76
2024/04/07 00:25:52;;;;;;;;;;;;;;;21.46;30.25;98077.22;5071163;28;954;-76
2024/04/07 00:28:17;;;;;;;;;;;;;;;21.62;29.85;98067.94;5069668;28;1317;-76
2024/04/07 00:30:44;;;;;;;;;;;;;;;21.59;29.90;98052.59;5036653;28;1257;-76
2024/04/07 00:33:09;;;;;;;;;;;;;;;21.46;30.01;98053.78;5053096;28;1196;-77
2024/04/07 00:35:35;;;;;;;;;;;;;;;21.38;30.58;98047.50;5036204;28;958;-76
2024/04/07 00:38:00;;;;;;;;;;;;;;;21.43;30.34;98043.34;5052992;28;1220;-77
2024/04/07 00:40:26;;;;;;;;;;;;;;;21.45;30.19;98021.84;5036320;28;984;-76
2024/04/07 00:42:51;;;;;;;;;;;;;;;21.34;30.20;98021.31;5052929;28;1914;-77
2024/04/07 00:45:17;;;;;;;;;;;;;;;21.41;30.23;98017.53;5036377;28;992;-77
2024/04/07 00:47:43;;;;;;;;;;;;;;;21.27;30.66;98025.09;5036235;28;1013;-77
2024/04/07 00:50:08;;;;;;;;;;;;;;;21.26;30.59;98020.66;5036374;28;1086;-77
2024/04/07 00:52:34;;;;;;;;;;;;;;;21.47;30.33;98016.53;5036318;28;1127;-76
2024/04/07 00:55:00;;;;;;;;;;;;;;;21.33;30.37;98011.22;5052801;28;1098;-77
2024/04/07 00:57:27;;;;;;;;;;;;;;;21.63;29.85;98001.56;5053013;28;1014;-76
2024/04/07 00:59:53;;;;;;;;;;;;;;;21.44;30.25;98016.63;5024735;28;1139;-77
2024/04/07 01:02:19;;;;;;;;;;;;;;;21.76;29.88;98010.94;5037058;28;1910;-76
2024/04/07 01:04:44;;;;;;;;;;;;;;;21.44;30.55;98013.78;5053530;28;1050;-77
2024/04/07 01:07:10;;;;;;;;;;;;;;;21.44;30.42;98005.28;5069576;28;998;-77
2024/04/07 01:09:35;;;;;;;;;;;;;;;21.69;30.05;98005.44;5053186;28;985;-77
2024/04/07 01:12:09;;;;;;;;;;;;;;;21.78;29.83;98005.59;5037087;28;1057;-77
2024/04/07 01:14:35;;;;;;;;;;;;;;;21.63;30.19;98007.22;5053374;28;951;-76
2024/04/07 01:17:00;;;;;;;;;;;;;;;21.51;30.13;98000.25;5036676;28;994;-77
2024/04/07 01:19:26;;;;;;;;;;;;;;;21.36;30.51;97998.25;5053213;28;1115;-76
2024/04/07 01:21:51;;;;;;;;;;;;;;;21.22;30.51;97990.88;5036463;28;1988;-77
2024/04/07 01:24:17;;;;;;;;;;;;;;;21.52;30.10;98003.88;5036320;28;1030;-77
2024/04/07 01:26:42;;;;;;;;;;;;;;;21.35;30.20;97999.47;5066174;28;1118;-76
2024/04/07 01:29:08;;;;;;;;;;;;;;;21.30;30.62;98004.44;5073743;28;1217;-76
2024/04/07 01:31:33;;;;;;;;;;;;;;;21.61;30.07;97998.38;5091237;28;976;-77
2024/04/07 01:33:59;;;;;;;;;;;;;;;21.43;30.12;97996.00;5057110;28;1056;-76
2024/04/07 01:36:24;;;;;;;;;;;;;;;21.42;30.14;98002.91;5057418;28;1248;-77
2024/04/07 01:38:50;;;;;;;;;;;;;;;21.52;30.06;98001.84;5074162;28;1220;-77
2024/04/07 01:41:15;;;;;;;;;;;;;;;21.42;30.08;98007.78;5058200;28;1913;-77
2024/04/07 01:43:41;;;;;;;;;;;;;;;21.51;30.02;97994.59;5073892;28;888;-76
2024/04/07 01:46:06;;;;;;;;;;;;;;;21.32;30.27;97996.28;5090472;28;1026;-76
2024/04/07 01:48:32;;;;;;;;;;;;;;;21.43;30.30;98003.72;5073851;28;901;-77
2024/04/07 01:50:58;;;;;;;;;;;;;;;21.71;29.90;97997.31;5090732;28;921;-77
2024/04/07 01:53:23;;;;;;;;;;;;;;;21.53;30.11;98002.63;5074231;28;1009;-76
2024/04/07 01:55:48;;;;;;;;;;;;;;;21.43;30.20;98003.72;5092428;28;1330;-77
2024/04/07 01:58:14;;;;;;;;;;;;;;;21.22;30.69;98011.47;5076242;28;1166;-77
2024/04/07 02:00:40;;;;;;;;;;;;;;;21.54;30.01;98010.69;5059217;28;1038;-77
2024/04/07 02:03:06;;;;;;;;;;;;;;;21.69;30.04;98005.44;5076085;28;1976;-77
2024/04/07 02:05:31;;;;;;;;;;;;;;;21.43;30.35;98003.72;5059024;28;977;-77
2024/04/07 02:07:57;;;;;;;;;;;;;;;21.57;30.10;98009.81;5058569;28;1464;-76
2024/04/07 02:10:22;;;;;;;;;;;;;;;21.50;30.34;98003.50;5058753;28;1155;-76
2024/04/07 02:12:48;;;;;;;;;;;;;;;21.62;30.35;98016.16;5075303;28;1099;-78
2024/04/07 02:15:13;;;;;;;;;;;;;;;21.58;30.30;98004.94;5075490;28;1098;-76
2024/04/07 02:17:38;;;;;;;;;;;;;;;21.50;30.58;98014.84;5075422;28;1137;-77
2024/04/07 02:20:08;;;;;;;;;;;;;;;21.44;30.66;98023.06;5058906;28;980;-76
2024/04/07 02:22:34;;;;;;;;;;;;;;;21.56;30.18;98030.88;5075566;28;1902;-76
2024/04/07 02:24:59;;;;;;;;;;;;;;;21.46;30.66;98031.16;5075033;28;974;-76
2024/04/07 02:27:25;;;;;;;;;;;;;;;21.39;30.61;98025.66;5055985;28;951;-76
2024/04/07 02:29:50;;;;;;;;;;;;;;;21.67;30.00;98021.28;5073203;28;1097;-76
2024/04/07 02:32:16;;;;;;;;;;;;;;;21.77;29.66;98029.50;5089727;28;946;-76
2024/04/07 02:34:41;;;;;;;;;;;;;;;21.43;30.39;98020.69;5089972;28;1173;-76
2024/04/07 02:37:07;;;;;;;;;;;;;;;21.41;30.61;98012.66;5072565;28;1147;-76
2024/04/07 02:39:32;;;;;;;;;;;;;;;21.39;30.42;98015.13;5072768;28;953;-77
2024/04/07 02:41:58;;;;;;;;;;;;;;;21.45;30.61;98013.38;5055983;28;1963;-76
2024/04/07 02:48:04;;;;;;;;;;;;;;;21.38;30.70;98012.72;5072793;28;1140;-77
2024/04/07 02:49:53;;;;;;;;;;;;;;;21.34;30.88;98018.47;5084550;28;930;-76
2024/04/07 02:52:18;;;;;;;;;;;;;;;21.41;30.34;98020.34;5094826;28;1367;-77
2024/04/07 02:54:44;;;;;;;;;;;;;;;21.43;30.68;98021.50;5077958;28;954;-77
2024/04/07 02:57:10;;;;;;;;;;;;;;;21.46;30.40;98019.81;5074152;28;1027;-76
2024/04/07 02:59:36;;;;;;;;;;;;;;;21.35;30.91;98013.59;5054166;28;1033;-76
2024/04/07 03:02:02;;;;;;;;;;;;;;;21.25;30.85;98021.13;5020934;28;1975;-77
2024/04/07 03:04:27;;;;;;;;;;;;;;;21.35;30.75;98010.78;5021197;28;978;-77
2024/04/07 03:06:56;;;;;;;;;;;;;;;21.40;30.75;98010.25;5037738;28;970;-76
2024/04/07 03:09:21;;;;;;;;;;;;;;;21.52;30.31;98018.03;5038210;28;1025;-76
2024/04/07 03:11:47;;;;;;;;;;;;;;;21.60;30.41;98013.75;5020539;28;1045;-76
2024/04/07 03:14:12;;;;;;;;;;;;;;;21.35;30.53;98013.59;5053935;28;1017;-76
2024/04/07 03:16:38;;;;;;;;;;;;;;;21.50;30.47;98018.50;5021025;28;969;-76
2024/04/07 03:19:03;;;;;;;;;;;;;;;21.48;30.40;98011.66;5054208;28;986;-76
2024/04/07 03:21:29;;;;;;;;;;;;;;;21.32;30.52;98018.13;5003795;28;1902;-76
2024/04/07 03:23:54;;;;;;;;;;;;;;;21.44;30.66;98016.63;5022653;28;1111;-76
2024/04/07 03:26:20;;;;;;;;;;;;;;;21.73;30.03;98017.47;4997673;28;1125;-76
2024/04/07 03:28:47;;;;;;;;;;;;;;;21.43;30.61;98020.69;5028922;28;923;-76
2024/04/07 03:31:13;;;;;;;;;;;;;;;21.61;30.33;98021.03;5032393;28;954;-77
2024/04/07 03:33:39;;;;;;;;;;;;;;;21.69;30.24;98022.44;5053671;28;1059;-77
2024/04/07 03:36:04;;;;;;;;;;;;;;;21.62;30.55;98027.50;5037248;28;1076;-76
2024/04/07 03:38:30;;;;;;;;;;;;;;;21.49;30.74;98024.56;5053832;28;1135;-76
2024/04/07 03:40:55;;;;;;;;;;;;;;;21.51;30.61;98027.78;5053530;28;1314;-76
2024/04/07 03:43:21;;;;;;;;;;;;;;;21.44;30.64;98023.06;5037065;28;1975;-77
2024/04/07 03:45:47;;;;;;;;;;;;;;;21.67;30.26;98024.91;5033564;28;1571;-77
2024/04/07 03:48:12;;;;;;;;;;;;;;;21.60;30.56;98027.91;5033869;28;954;-76
2024/04/07 03:50:41;;;;;;;;;;;;;;;21.61;30.62;98025.91;5017274;28;981;-77
2024/04/07 03:53:06;;;;;;;;;;;;;;;21.71;30.16;98039.78;5033775;28;965;-76
2024/04/07 03:55:32;;;;;;;;;;;;;;;21.72;30.28;98038.53;5017031;28;1092;-76
2024/04/07 03:57:57;;;;;;;;;;;;;;;21.47;30.58;98049.72;5036904;28;1101;-76
2024/04/07 04:00:23;;;;;;;;;;;;;;;21.77;30.26;98052.16;5036820;28;999;-77
2024/04/07 04:02:50;;;;;;;;;;;;;;;21.68;30.29;98049.16;5053289;28;1980;-76
2024/04/07 04:05:21;;;;;;;;;;;;;;;21.59;30.81;98054.66;5053124;28;1111;-77
2024/04/07 04:07:47;;;;;;;;;;;;;;;21.64;30.59;98053.31;5036850;28;1246;-76
2024/04/07 04:10:12;;;;;;;;;;;;;;;21.51;30.98;98062.53;5036654;28;1417;-76
2024/04/07 04:12:39;;;;;;;;;;;;;;;21.71;30.51;98050.28;5036543;28;886;-76
2024/04/07 04:15:05;;;;;;;;;;;;;;;21.82;30.19;98059.31;5052942;28;763;-76
2024/04/07 04:17:31;;;;;;;;;;;;;;;21.66;30.64;98068.63;5037487;28;784;-76
2024/04/07 04:19:56;;;;;;;;;;;;;;;21.39;31.36;98073.75;5088033;28;778;-76
2024/04/07 04:22:22;;;;;;;;;;;;;;;21.35;30.97;98085.19;5055691;28;1922;-76
2024/04/07 04:24:48;;;;;;;;;;;;;;;21.68;30.56;98088.81;5087860;28;782;-76
2024/04/07 04:27:14;;;;;;;;;;;;;;;21.61;30.67;98094.66;5054286;28;1173;-76
2024/04/07 04:29:40;;;;;;;;;;;;;;;21.50;30.75;98094.09;5087807;28;742;-76
2024/04/07 04:32:05;;;;;;;;;;;;;;;21.67;30.61;98092.09;5087746;28;805;-76
2024/04/07 04:34:31;;;;;;;;;;;;;;;21.31;31.02;98099.41;5074129;28;739;-76
2024/04/07 04:36:57;;;;;;;;;;;;;;;21.61;30.50;98091.03;5063585;28;1355;-76
2024/04/07 04:39:22;;;;;;;;;;;;;;;21.75;30.35;98088.59;5080083;28;1182;-76
2024/04/07 04:41:48;;;;;;;;;;;;;;;21.56;30.76;98079.00;5056452;28;1910;-77
2024/04/07 04:44:14;;;;;;;;;;;;;;;21.57;30.76;98085.44;5040501;28;994;-76
2024/04/07 04:46:43;;;;;;;;;;;;;;;21.54;30.92;98077.84;5023669;28;917;-76
2024/04/07 04:49:08;;;;;;;;;;;;;;;21.57;30.96;98085.44;5056763;28;791;-77
2024/04/07 04:51:34;;;;;;;;;;;;;;;21.61;30.96;98083.34;5056664;28;884;-76
2024/04/07 04:53:59;;;;;;;;;;;;;;;21.69;30.64;98081.91;5056573;28;1013;-76
2024/04/07 04:56:25;;;;;;;;;;;;;;;21.37;31.27;98085.53;5023893;28;822;-76
2024/04/07 04:58:52;;;;;;;;;;;;;;;21.72;30.57;98098.00;5040199;28;822;-76
2024/04/07 05:01:18;;;;;;;;;;;;;;;21.68;30.43;98100.13;5040006;28;1909;-77
2024/04/07 05:03:44;;;;;;;;;;;;;;;21.44;30.81;98096.66;5056626;28;841;-76
2024/04/07 05:06:11;;;;;;;;;;;;;;;21.48;31.08;98096.59;5023594;28;850;-76
2024/04/07 05:08:37;;;;;;;;;;;;;;;21.53;30.90;98099.69;5024552;28;825;-76
2024/04/07 05:11:03;;;;;;;;;;;;;;;21.44;31.04;98102.34;5053122;28;767;-77
2024/04/07 05:13:29;;;;;;;;;;;;;;;21.53;30.85;98091.19;5052884;28;1060;-76
2024/04/07 05:15:54;;;;;;;;;;;;;;;21.32;31.25;98095.34;5052989;28;802;-76
2024/04/07 05:18:20;;;;;;;;;;;;;;;21.69;30.71;98098.88;5039037;28;1095;-76
2024/04/07 05:20:45;;;;;;;;;;;;;;;21.50;31.23;98100.59;5090958;28;766;-76
2024/04/07 05:23:14;;;;;;;;;;;;;;;21.58;30.85;98102.00;5057552;28;1977;-77
2024/04/07 05:25:39;;;;;;;;;;;;;;;21.74;30.50;98104.00;5090336;28;810;-77
2024/04/07 05:28:05;;;;;;;;;;;;;;;21.74;30.67;98095.53;5073803;28;774;-76
2024/04/07 05:30:31;;;;;;;;;;;;;;;21.30;31.31;98095.00;5058706;28;857;-76
2024/04/07 05:32:56;;;;;;;;;;;;;;;21.64;30.69;98104.28;5058658;28;707;-77
2024/04/07 05:35:22;;;;;;;;;;;;;;;21.82;30.22;98104.66;5057190;28;778;-76
2024/04/07 05:37:47;;;;;;;;;;;;;;;21.60;30.37;98087.38;5058446;28;1179;-77
2024/04/07 05:40:13;;;;;;;;;;;;;;;21.68;30.43;98097.31;5058357;28;711;-76
2024/04/07 05:42:38;;;;;;;;;;;;;;;21.50;30.65;98099.75;5058242;28;1909;-76
2024/04/07 05:45:04;;;;;;;;;;;;;;;21.67;30.28;98094.91;5071850;28;1012;-76
2024/04/07 05:47:29;;;;;;;;;;;;;;;21.40;31.05;98100.81;5055801;28;904;-76
2024/04/07 05:49:55;;;;;;;;;;;;;;;21.49;30.83;98106.66;5039418;28;891;-77
2024/04/07 05:52:20;;;;;;;;;;;;;;;21.57;30.88;98108.09;5039339;28;788;-76
2024/04/07 05:54:46;;;;;;;;;;;;;;;21.56;30.91;98115.00;5055383;28;775;-77
2024/04/07 05:57:11;;;;;;;;;;;;;;;21.60;30.69;98115.69;5055976;28;896;-76
2024/04/07 05:59:37;;;;;;;;;;;;;;;21.63;30.65;98119.69;5055576;28;922;-77
2024/04/07 06:02:02;;;;;;;;;;;;;;;21.54;30.83;98123.13;5055437;28;1981;-76
2024/04/07 06:04:28;;;;;;;;;;;;;;;21.81;30.06;98120.84;5039128;28;692;-77
2024/04/07 06:06:53;;;;;;;;;;;;;;;21.55;30.66;98116.22;5039156;28;830;-76
2024/04/07 06:09:19;;;;;;;;;;;;;;;21.60;30.44;98110.03;5021905;28;961;-77
2024/04/07 06:11:45;;;;;;;;;;;;;;;21.42;30.84;98109.69;5038828;28;1082;-76
2024/04/07 06:14:10;;;;;;;;;;;;;;;21.25;31.18;98115.31;5038722;28;861;-76
2024/04/07 06:16:37;;;;;;;;;;;;;;;21.75;30.49;98133.94;5038580;28;842;-77
2024/04/07 06:19:04;;;;;;;;;;;;;;;21.57;30.67;98133.59;5038791;28;711;-76
2024/04/07 06:21:29;;;;;;;;;;;;;;;21.87;30.08;98123.94;5038601;28;1989;-77
2024/04/07 06:23:55;;;;;;;;;;;;;;;21.80;30.22;98124.91;5090082;28;777;-76
2024/04/07 06:26:20;;;;;;;;;;;;;;;21.68;30.29;98128.44;5089725;28;797;-76
2024/04/07 06:28:46;;;;;;;;;;;;;;;21.60;30.16;98135.50;5056285;28;704;-76
2024/04/07 06:31:11;;;;;;;;;;;;;;;21.77;30.06;98137.13;5089792;28;902;-76
2024/04/07 06:33:37;;;;;;;;;;;;;;;21.34;30.60;98137.34;5057092;28;751;-77
2024/04/07 06:36:02;;;;;;;;;;;;;;;21.45;30.34;98148.41;5089773;28;830;-76
2024/04/07 06:38:28;;;;;;;;;;;;;;;21.53;30.06;98149.84;5057429;28;1065;-76
2024/04/07 06:40:53;;;;;;;;;;;;;;;21.51;30.00;98153.13;5057388;28;741;-76
2024/04/07 06:43:19;;;;;;;;;;;;;;;21.70;29.71;98154.28;5089214;28;1981;-76
2024/04/07 06:45:44;;;;;;;;;;;;;;;21.56;30.00;98154.66;5089346;28;763;-76
2024/04/07 06:48:10;;;;;;;;;;;;;;;21.29;30.40;98158.44;5073117;28;1142;-76
2024/04/07 06:50:35;;;;;;;;;;;;;;;21.44;29.85;98163.81;5072427;28;790;-76
2024/04/07 06:53:01;;;;;;;;;;;;;;;21.32;30.26;98168.94;5089541;28;992;-76
2024/04/07 06:55:27;;;;;;;;;;;;;;;21.15;30.51;98160.81;5077271;28;979;-76
2024/04/07 06:57:53;;;;;;;;;;;;;;;21.11;30.45;98169.38;5077887;28;802;-76
2024/04/07 07:00:18;;;;;;;;;;;;;;;20.98;30.72;98171.28;5077952;28;816;-76
2024/04/07 07:02:44;;;;;;;;;;;;;;;21.38;30.00;98171.25;5077871;28;1981;-76
2024/04/07 07:05:09;;;;;;;;;;;;;;;21.40;30.00;98165.94;5094337;28;764;-76
2024/04/07 07:07:35;;;;;;;;;;;;;;;21.41;30.08;98179.66;5054407;28;830;-76
2024/04/07 07:10:01;;;;;;;;;;;;;;;21.35;29.82;98177.78;5054291;28;885;-75
2024/04/07 07:12:26;;;;;;;;;;;;;;;21.06;30.56;98189.69;5021423;28;1221;-76
2024/04/07 07:14:52;;;;;;;;;;;;;;;21.03;30.33;98182.06;5037477;28;1190;-76
2024/04/07 07:17:18;;;;;;;;;;;;;;;21.23;30.29;98177.19;5037731;28;939;-76
2024/04/07 07:19:43;;;;;;;;;;;;;;;21.31;30.01;98192.81;5020865;28;857;-76
2024/04/07 07:22:09;;;;;;;;;;;;;;;21.35;29.67;98198.41;5037110;28;1985;-77
2024/04/07 07:24:34;;;;;;;;;;;;;;;21.39;29.75;98195.47;5054054;28;691;-77
2024/04/07 07:27:00;;;;;;;;;;;;;;;21.30;29.83;98194.06;5022741;28;1134;-76
2024/04/07 07:29:25;;;;;;;;;;;;;;;21.24;30.07;98195.78;5050436;28;1236;-76
2024/04/07 07:31:52;;;;;;;;;;;;;;;21.03;30.39;98191.34;5033751;28;1018;-76
2024/04/07 07:34:18;;;;;;;;;;;;;;;21.12;30.07;98204.94;5017323;28;961;-76
2024/04/07 07:36:43;;;;;;;;;;;;;;;21.12;29.98;98204.94;5017359;28;1105;-76
2024/04/07 07:39:10;;;;;;;;;;;;;;;21.10;30.50;98207.41;5046538;28;1090;-76
2024/04/07 07:41:37;;;;;;;;;;;;;;;21.30;30.25;98213.88;5057202;28;2048;-76
2024/04/07 07:44:02;;;;;;;;;;;;;;;21.33;30.58;98210.16;5056964;28;818;-76
2024/04/07 07:46:29;;;;;;;;;;;;;;;21.52;30.37;98204.91;5057428;28;1338;-76
2024/04/07 07:48:54;;;;;;;;;;;;;;;21.30;30.68;98222.38;5090652;28;1114;-76
2024/04/07 07:51:20;;;;;;;;;;;;;;;21.43;30.55;98207.53;5073802;28;820;-76
2024/04/07 07:53:48;;;;;;;;;;;;;;;21.50;30.50;98219.50;5057126;28;917;-76
2024/04/07 07:56:13;;;;;;;;;;;;;;;21.41;30.69;98221.34;5057401;28;1203;-76
2024/04/07 07:58:39;;;;;;;;;;;;;;;21.41;30.47;98221.34;5073511;28;821;-76
2024/04/07 08:01:04;;;;;;;;;;;;;;;21.27;31.01;98220.38;5073451;28;963;-75
2024/04/07 08:03:30;;;;;;;;;;;;;;;21.35;30.93;98223.06;5033327;28;2002;-76
2024/04/07 08:05:55;;;;;;;;;;;;;;;21.19;31.12;98221.78;5033677;28;843;-76
2024/04/07 08:08:21;;;;;;;;;;;;;;;21.36;31.07;98227.50;5033520;28;861;-76
2024/04/07 08:10:47;;;;;;;;;;;;;;;21.52;30.88;98228.34;5050210;28;1147;-76
2024/04/07 08:13:13;;;;;;;;;;;;;;;21.42;31.03;98223.72;5033559;28;799;-76
2024/04/07 08:15:41;;;;;;;;;;;;;;;21.44;30.89;98215.56;5050054;28;700;-77
2024/04/07 08:18:06;;;;;;;;;;;;;;;21.36;31.31;98230.34;5033372;28;833;-76
2024/04/07 08:20:32;;;;;;;;;;;;;;;21.42;31.18;98228.56;5056649;28;1158;-76
2024/04/07 08:22:57;;;;;;;;;;;;;;;21.57;30.69;98241.19;5039850;28;1902;-76
2024/04/07 08:25:23;;;;;;;;;;;;;;;21.47;31.02;98243.00;5007134;28;1134;-76
2024/04/07 08:27:48;;;;;;;;;;;;;;;21.44;31.10;98243.09;5056489;28;861;-76
2024/04/07 08:30:14;;;;;;;;;;;;;;;21.24;31.28;98235.41;5073336;28;814;-76
2024/04/07 08:32:39;;;;;;;;;;;;;;;21.39;31.24;98240.75;5016637;28;1139;-76
2024/04/07 08:35:05;;;;;;;;;;;;;;;21.60;30.87;98254.44;5031651;28;993;-76
2024/04/07 08:37:30;;;;;;;;;;;;;;;21.51;30.99;98242.94;5036292;28;1061;-76
2024/04/07 08:39:56;;;;;;;;;;;;;;;21.49;31.16;98242.56;5036883;28;771;-76
2024/04/07 08:42:22;;;;;;;;;;;;;;;21.74;30.77;98239.97;5032857;28;1906;-76
2024/04/07 08:44:47;;;;;;;;;;;;;;;21.38;31.39;98237.13;5000198;28;930;-77
2024/04/07 08:47:13;;;;;;;;;;;;;;;21.56;30.93;98246.03;5016775;28;923;-75
2024/04/07 08:49:39;;;;;;;;;;;;;;;21.63;30.90;98233.75;5016406;28;1130;-76
2024/04/07 08:52:05;;;;;;;;;;;;;;;21.31;31.32;98234.47;4999967;28;903;-76
2024/04/07 08:54:31;;;;;;;;;;;;;;;21.62;30.99;98235.00;5016436;28;736;-76
2024/04/07 08:56:56;;;;;;;;;;;;;;;21.46;31.16;98240.63;5014852;28;916;-76
2024/04/07 08:59:22;;;;;;;;;;;;;;;21.65;31.25;98248.25;4997170;28;832;-76
2024/04/07 09:01:47;;;;;;;;;;;;;;;21.56;31.43;98250.91;5013140;28;1979;-76
2024/04/07 09:04:13;;;;;;;;;;;;;;;21.63;30.93;98249.94;5025978;28;922;-76
2024/04/07 09:06:38;;;;;;;;;;;;;;;21.67;31.19;98245.81;5052780;28;746;-76
2024/04/07 09:09:05;;;;;;;;;;;;;;;21.61;31.30;98253.22;5052643;28;963;-76
2024/04/07 09:11:35;;;;;;;;;;;;;;;21.40;31.75;98248.00;5052584;28;755;-76
2024/04/07 09:14:01;;;;;;;;;;;;;;;21.67;31.22;98250.66;5081347;28;898;-76
2024/04/07 09:16:26;;;;;;;;;;;;;;;21.67;31.08;98245.81;5087692;28;932;-76
2024/04/07 09:18:52;;;;;;;;;;;;;;;21.70;31.03;98253.41;5055504;28;727;-76
2024/04/07 09:21:22;;;;;;;;;;;;;;;21.57;31.31;98246.84;5074585;28;743;-76
2024/04/07 09:23:50;;;;;;;;;;;;;;;21.53;31.32;98251.78;5073616;28;1901;-76
2024/04/07 09:26:16;;;;;;;;;;;;;;;21.48;31.40;98255.13;5091021;28;934;-76
2024/04/07 09:28:42;;;;;;;;;;;;;;;21.59;31.21;98245.16;5091189;28;754;-76
2024/04/07 09:31:07;;;;;;;;;;;;;;;21.60;31.14;98257.28;5058874;28;938;-76
2024/04/07 09:33:36;;;;;;;;;;;;;;;21.53;31.42;98258.25;5090864;28;793;-76
2024/04/07 09:36:02;;;;;;;;;;;;;;;21.64;31.12;98252.34;5058766;28;795;-76
2024/04/07 09:38:28;;;;;;;;;;;;;;;21.42;31.35;98245.56;5096055;28;1110;-76
2024/04/07 09:40:56;;;;;;;;;;;;;;;21.36;31.61;98255.81;5096320;28;763;-76
2024/04/07 09:43:26;;;;;;;;;;;;;;;21.46;31.33;98246.28;5079636;28;1902;-76
2024/04/07 09:45:51;;;;;;;;;;;;;;;21.53;31.37;98246.91;5062759;28;1113;-76
2024/04/07 09:48:17;;;;;;;;;;;;;;;21.33;31.66;98254.63;5079239;28;1234;-76
2024/04/07 09:50:44;;;;;;;;;;;;;;;21.36;31.66;98259.44;5046201;28;1742;-76
2024/04/07 09:53:15;;;;;;;;;;;;;;;21.50;31.11;98252.66;5096169;28;793;-76
2024/04/07 09:55:41;;;;;;;;;;;;;;;21.36;31.39;98252.97;5062767;28;775;-77
2024/04/07 09:58:07;;;;;;;;;;;;;;;21.30;31.40;98256.31;5062445;28;782;-76
2024/04/07 10:00:32;;;;;;;;;;;;;;;21.64;30.89;98257.19;5062526;28;842;-77
2024/04/07 10:02:58;;;;;;;;;;;;;;;21.56;31.03;98279.22;5062269;28;1902;-76
2024/04/07 10:05:23;;;;;;;;;;;;;;;21.64;30.80;98311.81;5079236;28;770;-76
2024/04/07 10:07:49;;;;;;;;;;;;;;;21.43;30.98;98337.75;5096097;28;778;-76
2024/04/07 10:10:16;;;;;;;;;;;;;;;21.31;31.44;98342.81;5043401;28;794;-76
2024/04/07 10:12:41;;;;;;;;;;;;;;;21.31;31.28;98319.38;5078678;28;991;-76
2024/04/07 10:15:17;;;;;;;;;;;;;;;21.61;30.67;98321.19;5061824;28;902;-76
2024/04/07 10:17:43;;;;;;;;;;;;;;;21.56;30.85;98313.22;5058713;28;1114;-76
2024/04/07 10:20:08;;;;;;;;;;;;;;;21.28;30.97;98318.19;5042365;28;925;-76
2024/04/07 10:22:34;;;;;;;;;;;;;;;21.44;30.76;98317.47;5033832;28;1914;-76
2024/04/07 10:25:00;;;;;;;;;;;;;;;21.53;30.58;98319.72;5019071;28;736;-76
2024/04/07 10:27:26;;;;;;;;;;;;;;;21.46;30.80;98314.22;5019125;28;940;-76
2024/04/07 10:29:56;;;;;;;;;;;;;;;21.51;30.51;98308.06;5019002;28;854;-76
2024/04/07 10:32:34;;;;;;;;;;;;;;;21.21;31.36;98304.19;5017724;28;966;-76
2024/04/07 10:35:09;;;;;;;;;;;;;;;21.58;30.57;98317.19;5018851;28;1523;-76
2024/04/07 10:37:35;;;;;;;;;;;;;;;21.49;30.35;98330.31;5018303;28;1279;-76
2024/04/07 10:40:05;;;;;;;;;;;;;;;21.42;30.64;98330.50;5035031;28;870;-76
2024/04/07 10:42:31;;;;;;;;;;;;;;;21.40;30.65;98332.94;4997889;28;1924;-76
2024/04/07 10:44:57;;;;;;;;;;;;;;;21.57;30.33;98331.78;5011561;28;900;-76
2024/04/07 10:47:22;;;;;;;;;;;;;;;21.43;30.60;98332.06;5011751;28;901;-76
2024/04/07 10:49:48;;;;;;;;;;;;;;;21.24;30.67;98322.31;4995692;28;881;-76
2024/04/07 10:52:14;;;;;;;;;;;;;;;21.61;30.14;98321.19;4979625;28;872;-76
2024/04/07 10:54:39;;;;;;;;;;;;;;;21.55;30.24;98320.91;5049651;28;939;-76
2024/04/07 10:57:05;;;;;;;;;;;;;;;21.44;30.47;98328.00;5002127;28;1151;-76
2024/04/07 10:59:30;;;;;;;;;;;;;;;21.58;30.07;98322.06;5051508;28;1135;-76
2024/04/07 11:01:56;;;;;;;;;;;;;;;21.42;30.24;98324.81;5051276;28;1902;-76
2024/04/07 11:04:21;;;;;;;;;;;;;;;21.30;30.66;98332.75;5001596;28;1132;-76
2024/04/07 11:06:47;;;;;;;;;;;;;;;21.58;30.16;98324.88;5001564;28;971;-76
2024/04/07 11:09:13;;;;;;;;;;;;;;;21.37;30.60;98328.16;5001857;28;1175;-76
2024/04/07 11:11:42;;;;;;;;;;;;;;;21.36;30.67;98332.22;5014611;28;1127;-76
2024/04/07 11:14:08;;;;;;;;;;;;;;;21.57;30.31;98337.44;5029852;28;813;-76
2024/04/07 11:16:35;;;;;;;;;;;;;;;21.27;30.82;98327.13;5051324;28;1328;-76
2024/04/07 11:19:00;;;;;;;;;;;;;;;21.32;30.80;98332.31;5034429;28;1158;-76
2024/04/07 11:21:27;;;;;;;;;;;;;;;21.36;30.66;98326.56;5051202;28;1744;-76
2024/04/07 11:23:53;;;;;;;;;;;;;;;21.50;30.37;98326.25;5034165;28;1973;-76
2024/04/07 11:26:21;;;;;;;;;;;;;;;21.51;30.23;98333.53;5034561;28;775;-76
2024/04/07 11:28:49;;;;;;;;;;;;;;;21.68;29.97;98331.56;5050576;28;1071;-76
2024/04/07 11:31:15;;;;;;;;;;;;;;;21.42;30.24;98330.50;5034027;28;1117;-76
2024/04/07 11:33:40;;;;;;;;;;;;;;;21.39;30.34;98334.19;5020538;28;1322;-76
2024/04/07 11:36:06;;;;;;;;;;;;;;;21.29;30.34;98339.59;5050422;28;902;-76
2024/04/07 11:38:32;;;;;;;;;;;;;;;21.44;30.34;98333.66;5033826;28;1308;-76
2024/04/07 11:40:58;;;;;;;;;;;;;;;21.35;30.30;98342.75;5034101;28;767;-76
2024/04/07 11:43:23;;;;;;;;;;;;;;;21.18;30.44;98333.34;5033665;28;1985;-76
2024/04/07 11:45:49;;;;;;;;;;;;;;;21.53;30.15;98339.56;5050518;28;751;-76
2024/04/07 11:48:14;;;;;;;;;;;;;;;21.30;30.39;98346.91;5034353;28;1357;-76
2024/04/07 11:50:40;;;;;;;;;;;;;;;21.49;30.05;98344.47;5035114;28;1058;-76
2024/04/07 11:53:05;;;;;;;;;;;;;;;21.14;30.31;98310.00;5107408;28;1660;-76
2024/04/07 11:55:31;;;;;;;;;;;;;;;21.24;30.43;98337.28;5074287;28;1028;-76
2024/04/07 11:57:57;;;;;;;;;;;;;;;21.54;29.98;98350.44;5090603;28;901;-77
2024/04/07 12:00:22;;;;;;;;;;;;;;;21.35;30.38;98359.75;5107564;28;1698;-76
2024/04/07 12:02:48;;;;;;;;;;;;;;;21.26;30.26;98354.63;5107383;28;1909;-76
2024/04/07 12:05:13;;;;;;;;;;;;;;;21.42;30.27;98358.78;5107278;28;914;-76
2024/04/07 12:07:39;;;;;;;;;;;;;;;21.26;30.27;98357.44;5073456;28;779;-76
2024/04/07 12:10:04;;;;;;;;;;;;;;;21.32;30.24;98366.25;5090481;28;808;-76
2024/04/07 12:12:30;;;;;;;;;;;;;;;21.46;30.07;98360.31;5090591;28;743;-76
2024/04/07 12:14:56;;;;;;;;;;;;;;;21.26;30.14;98363.09;5073367;28;751;-76
2024/04/07 12:17:21;;;;;;;;;;;;;;;21.46;30.02;98366.00;5107313;28;1105;-76
2024/04/07 12:19:47;;;;;;;;;;;;;;;21.42;30.16;98373.75;5107455;28;1224;-76
2024/04/07 12:22:16;;;;;;;;;;;;;;;21.35;30.08;98371.06;5073308;28;1905;-76
2024/04/07 12:24:42;;;;;;;;;;;;;;;21.54;29.72;98360.97;5073368;28;1089;-76
2024/04/07 12:27:07;;;;;;;;;;;;;;;21.37;30.08;98368.59;5107527;28;739;-77
2024/04/07 12:29:33;;;;;;;;;;;;;;;21.22;30.20;98373.69;5069745;28;1069;-76
2024/04/07 12:31:58;;;;;;;;;;;;;;;21.10;30.35;98377.16;5067984;28;1298;-76
2024/04/07 12:34:24;;;;;;;;;;;;;;;21.54;29.87;98375.13;5034630;28;768;-76
2024/04/07 12:36:49;;;;;;;;;;;;;;;21.52;29.61;98371.94;5067661;28;845;-76
2024/04/07 12:39:15;;;;;;;;;;;;;;;21.42;30.03;98372.94;5035499;28;1029;-76
2024/04/07 12:41:40;;;;;;;;;;;;;;;21.46;29.88;98365.19;5067307;28;1906;-76
2024/04/07 12:44:07;;;;;;;;;;;;;;;21.19;30.33;98374.56;5035422;28;897;-76
2024/04/07 12:46:32;;;;;;;;;;;;;;;21.56;30.01;98381.16;5067747;28;722;-76
2024/04/07 12:48:58;;;;;;;;;;;;;;;21.48;29.98;98382.53;5066748;28;1286;-76
2024/04/07 12:51:23;;;;;;;;;;;;;;;21.60;29.74;98373.38;5067385;28;845;-77
2024/04/07 12:53:49;;;;;;;;;;;;;;;21.51;29.82;98382.47;5067217;28;1302;-76
2024/04/07 12:56:14;;;;;;;;;;;;;;;21.54;29.89;98395.72;5071637;28;1128;-76
2024/04/07 12:58:40;;;;;;;;;;;;;;;21.33;30.24;98396.97;5071516;28;1090;-76